Time;durP1;ratioP1;P1;durP2;ratioP2;P2;SDS_P1;SDS_P2;PMS_P1;PMS_P2;Temp;Humidity;BMP_temperature;BMP_pressure;BME280_temperature;BME280_humidity;BME280_pressure;Samples;Min_cycle;Max_cycle;Signal;HPM_P1;HPM_P2
2022/05/10 00:00:32;;;;;;;6.03;2.33;;;;;;;11.75;43.21;101940.84;4812914;29;20050;-81
2022/05/10 00:08:20;;;;;;;5.13;2.47;;;;;;;11.71;42.53;101944.47;4784713;29;20046;-77
2022/05/10 00:11:53;;;;;;;5.18;2.40;;;;;;;11.71;42.60;101936.63;4809443;29;20187;-79
2022/05/10 00:23:52;;;;;;;5.57;2.97;;;;;;;11.87;42.25;101924.81;4886392;28;20135;-79
2022/05/10 00:27:43;;;;;;;7.72;2.85;;;;;;;11.82;42.37;101915.38;4883508;29;20113;-80
2022/05/10 00:31:10;;;;;;;7.28;2.70;;;;;;;11.85;42.21;101920.53;4872678;29;20143;-82
2022/05/10 00:41:32;;;;;;;5.65;3.10;;;;;;;11.92;42.41;101903.72;4915552;29;20060;-78
2022/05/10 00:45:26;;;;;;;7.20;3.80;;;;;;;11.87;42.37;101900.41;4903938;29;20055;-81
2022/05/10 00:49:03;;;;;;;5.50;3.55;;;;;;;11.87;42.74;101900.41;4950002;28;20103;-82
2022/05/10 00:53:10;;;;;;;7.65;2.65;;;;;;;11.78;42.64;101891.03;4952030;28;20524;-82
2022/05/10 00:56:57;;;;;;;8.93;3.25;;;;;;;11.80;42.90;101889.25;4960608;28;20035;-80
2022/05/10 01:04:34;;;;;;;6.90;3.20;;;;;;;11.91;42.86;101877.56;4875970;29;20127;-82
2022/05/10 01:08:29;;;;;;;13.27;3.10;;;;;;;12.10;42.28;101872.66;4857689;29;20143;-84
2022/05/10 01:12:37;;;;;;;8.65;2.88;;;;;;;12.09;42.39;101863.94;4903054;29;20132;-80
2022/05/10 01:16:10;;;;;;;6.55;3.13;;;;;;;12.07;42.03;101860.50;4958507;28;20054;-82
2022/05/10 01:20:03;;;;;;;6.70;2.47;;;;;;;11.92;42.53;101856.56;4931767;28;20091;-79
2022/05/10 01:27:52;;;;;;;10.75;2.83;;;;;;;12.12;42.16;101832.38;4917920;28;20054;-84
2022/05/10 01:35:30;;;;;;;5.05;2.83;;;;;;;12.24;42.00;101831.97;4906451;28;20046;-79
2022/05/10 01:39:26;;;;;;;6.60;3.08;;;;;;;12.31;41.75;101826.56;4892620;28;20054;-84
2022/05/10 01:43:25;;;;;;;5.78;2.63;;;;;;;12.44;41.60;101817.38;4931240;28;20036;-85
2022/05/10 01:51:22;;;;;;;7.28;2.78;;;;;;;12.46;41.18;101811.19;4900096;29;20081;-81
2022/05/10 01:54:53;;;;;;;7.13;3.13;;;;;;;12.47;41.44;101807.66;4853430;29;20413;-82
2022/05/10 01:58:57;;;;;;;5.13;2.40;;;;;;;12.54;41.48;101805.69;4872803;29;20195;-79
2022/05/10 02:02:44;;;;;;;6.20;2.30;;;;;;;12.54;41.93;101799.59;4861135;29;20140;-80
2022/05/10 02:06:10;;;;;;;6.03;2.72;;;;;;;12.49;42.11;101797.09;4861905;29;20055;-82
2022/05/10 02:09:46;;;;;;;6.30;2.22;;;;;;;12.55;41.70;101789.03;4842381;29;20044;-79
2022/05/10 02:13:43;;;;;;;5.97;2.80;;;;;;;12.63;41.80;101794.88;4911521;29;20474;-82
2022/05/10 02:17:21;;;;;;;6.07;3.22;;;;;;;12.56;42.28;101785.53;4904971;29;20046;-78
2022/05/10 02:24:51;;;;;;;3.20;2.67;;;;;;;12.73;41.90;101791.97;4909511;29;20071;-81
2022/05/10 02:28:26;;;;;;;5.97;2.85;;;;;;;12.54;42.33;101794.34;4859106;29;20093;-77
2022/05/10 02:35:50;;;;;;;6.85;2.75;;;;;;;12.58;42.45;101781.09;4958012;28;20098;-84
2022/05/10 02:39:48;;;;;;;7.18;3.60;;;;;;;12.46;42.68;101778.88;4904774;28;20049;-82
2022/05/10 02:48:02;;;;;;;4.90;3.38;;;;;;;12.35;43.05;101784.47;4916445;29;20039;-82
2022/05/10 02:52:08;;;;;;;6.75;3.25;;;;;;;12.41;42.75;101778.16;4925250;29;20039;-80
2022/05/10 02:55:52;;;;;;;11.32;3.75;;;;;;;12.43;42.66;101779.81;4913121;29;20062;-80
2022/05/10 02:59:33;;;;;;;7.85;4.18;;;;;;;12.27;42.95;101774.25;4843054;29;20037;-75
2022/05/10 03:02:59;;;;;;;6.85;4.78;;;;;;;12.35;43.02;101775.75;4845027;29;20041;-81
2022/05/10 03:06:54;;;;;;;9.90;4.72;;;;;;;12.22;43.13;101770.91;4869818;29;20096;-79
2022/05/10 03:10:43;;;;;;;7.35;5.47;;;;;;;12.18;43.29;101764.06;4921822;28;20100;-79
2022/05/10 03:21:34;;;;;;;9.80;6.68;;;;;;;12.27;43.02;101750.66;4998380;28;20607;-80
2022/05/10 03:25:04;;;;;;;6.78;5.32;;;;;;;12.31;43.43;101740.06;4969795;28;20096;-80
2022/05/10 03:32:51;;;;;;;14.15;7.57;;;;;;;12.40;43.16;101742.34;4909199;29;20168;-81
2022/05/10 03:36:32;;;;;;;8.43;5.60;;;;;;;12.43;43.44;101742.28;4893326;29;20038;-80
2022/05/10 03:39:26;;;;;;;9.20;6.72;;;;;;;12.44;43.50;101738.72;4857251;29;20236;-79
2022/05/10 03:41:51;;;;;;;11.40;6.60;;;;;;;12.37;43.31;101737.22;4934305;28;20051;-78
2022/05/10 03:44:17;;;;;;;12.30;7.32;;;;;;;12.41;43.15;101733.59;4987996;28;20045;-80
2022/05/10 03:46:44;;;;;;;14.00;7.10;;;;;;;12.43;43.57;101731.78;4969694;28;20046;-79
2022/05/10 03:49:11;;;;;;;9.88;6.28;;;;;;;12.45;43.77;101729.97;4966741;28;20054;-79
2022/05/10 03:51:36;;;;;;;9.60;6.70;;;;;;;12.53;43.28;101727.06;4970247;28;20121;-79
2022/05/10 03:54:02;;;;;;;10.13;7.95;;;;;;;12.54;43.29;101729.66;4965208;28;20126;-79
2022/05/10 03:56:27;;;;;;;11.48;6.28;;;;;;;12.51;43.62;101721.88;4987400;28;20423;-79
2022/05/10 03:58:56;;;;;;;16.70;8.02;;;;;;;12.48;43.92;101719.38;4964477;28;20046;-80
2022/05/10 04:01:22;;;;;;;11.40;7.97;;;;;;;12.52;43.92;101720.97;4968604;28;20037;-79
2022/05/10 04:03:48;;;;;;;13.65;8.32;;;;;;;12.50;43.73;101715.78;4984250;28;20087;-80
2022/05/10 04:06:14;;;;;;;11.98;7.53;;;;;;;12.59;43.62;101717.22;4967469;28;20022;-80
2022/05/10 04:08:40;;;;;;;15.32;7.72;;;;;;;12.62;43.57;101714.47;4966808;28;20049;-79
2022/05/10 04:11:09;;;;;;;11.05;7.22;;;;;;;12.68;43.35;101716.91;4961566;28;20026;-78
2022/05/10 04:13:34;;;;;;;12.60;8.02;;;;;;;12.60;43.90;101711.09;4988296;28;20038;-79
2022/05/10 04:16:00;;;;;;;11.10;9.35;;;;;;;12.61;43.64;101704.91;4967357;28;21655;-80
2022/05/10 04:18:27;;;;;;;14.30;8.85;;;;;;;12.61;44.03;101709.31;4966237;28;20097;-79
2022/05/10 04:20:53;;;;;;;17.27;10.45;;;;;;;12.62;43.57;101706.63;4981344;28;20110;-78
2022/05/10 04:23:19;;;;;;;12.40;9.23;;;;;;;12.70;43.83;101704.63;4983080;28;20144;-80
2022/05/10 04:25:45;;;;;;;19.58;10.70;;;;;;;12.66;43.77;101704.75;5004431;28;20514;-78
2022/05/10 04:28:11;;;;;;;15.32;9.95;;;;;;;12.77;43.48;101694.75;4966916;28;20698;-79
2022/05/10 04:30:36;;;;;;;17.27;9.65;;;;;;;12.81;43.53;101700.75;4967949;28;20463;-79
2022/05/10 04:33:02;;;;;;;14.77;9.55;;;;;;;12.97;43.19;101690.56;4965523;28;20393;-79
2022/05/10 04:35:28;;;;;;;14.30;10.70;;;;;;;12.84;42.97;101696.25;4974524;28;20030;-78
2022/05/10 04:37:53;;;;;;;18.45;10.57;;;;;;;12.91;43.34;101702.13;5001883;28;20043;-79
2022/05/10 04:43:05;;;;;;;12.55;10.10;;;;;;;13.13;42.81;101702.19;4984558;28;20039;-80
2022/05/10 04:45:34;;;;;;;18.23;10.38;;;;;;;13.22;42.92;101711.47;4969021;28;20045;-79
2022/05/10 04:47:59;;;;;;;14.57;10.27;;;;;;;13.32;42.72;101708.44;4968033;28;20694;-79
2022/05/10 04:50:25;;;;;;;13.50;9.27;;;;;;;13.35;42.45;101712.72;4971062;28;20175;-80
2022/05/10 04:52:50;;;;;;;16.55;10.20;;;;;;;13.28;42.57;101711.25;4984072;28;20038;-78
2022/05/10 04:55:17;;;;;;;17.67;11.27;;;;;;;13.26;42.43;101702.59;4966210;28;20163;-80
2022/05/10 04:57:42;;;;;;;18.70;11.82;;;;;;;13.23;42.52;101702.72;5004687;28;20101;-79
2022/05/10 05:00:12;;;;;;;15.20;10.52;;;;;;;13.21;42.71;101699.28;4966534;28;21143;-80
2022/05/10 05:02:38;;;;;;;17.60;11.25;;;;;;;13.21;42.71;101701.91;4964532;28;20528;-79
2022/05/10 05:05:05;;;;;;;18.08;10.35;;;;;;;13.18;42.55;101696.75;4965833;28;20054;-79
2022/05/10 05:07:30;;;;;;;17.30;10.48;;;;;;;13.10;43.09;101690.03;4969287;28;20087;-79
2022/05/10 05:09:56;;;;;;;17.85;11.38;;;;;;;13.04;43.21;101692.03;4962124;28;20585;-79
2022/05/10 05:12:22;;;;;;;12.35;10.15;;;;;;;13.30;42.69;101702.41;4988392;28;20089;-78
2022/05/10 05:14:48;;;;;;;16.52;10.05;;;;;;;13.40;42.74;101710.78;4966645;28;20023;-79
2022/05/10 05:17:13;;;;;;;17.13;11.32;;;;;;;13.51;42.29;101702.47;4970966;28;20041;-79
2022/05/10 05:19:39;;;;;;;17.05;9.65;;;;;;;13.62;42.28;101710.81;4983341;28;20425;-79
2022/05/10 05:22:05;;;;;;;16.10;10.30;;;;;;;13.58;41.92;101713.63;4964388;28;20033;-80
2022/05/10 05:24:30;;;;;;;20.88;10.65;;;;;;;13.31;42.86;101717.22;4970594;28;20042;-79
2022/05/10 05:26:57;;;;;;;18.70;11.65;;;;;;;13.67;42.09;101708.00;4982606;28;20519;-79
2022/05/10 05:29:23;;;;;;;15.88;11.65;;;;;;;13.86;42.09;101705.50;4972254;28;20033;-79
2022/05/10 05:31:51;;;;;;;20.80;12.77;;;;;;;13.82;41.76;101717.06;4981146;28;20085;-79
2022/05/10 05:34:17;;;;;;;19.20;11.20;;;;;;;13.62;42.37;101726.59;4968428;28;20037;-79
2022/05/10 05:36:44;;;;;;;58.92;28.70;;;;;;;13.82;42.34;101717.06;4983351;28;20038;-80
2022/05/10 05:39:09;;;;;;;19.13;10.73;;;;;;;14.06;41.76;101717.84;4998706;28;20038;-79
2022/05/10 05:41:35;;;;;;;16.27;10.38;;;;;;;14.14;41.49;101718.34;4967382;28;20033;-79
2022/05/10 05:44:00;;;;;;;16.83;10.55;;;;;;;14.12;41.69;101722.81;4996839;28;21485;-80
2022/05/10 05:46:25;;;;;;;26.50;13.02;;;;;;;14.32;41.14;101722.88;4967790;28;20416;-80
2022/05/10 05:48:51;;;;;;;17.45;11.57;;;;;;;14.42;40.37;101730.38;4964008;28;20153;-79
2022/05/10 05:51:16;;;;;;;17.92;11.48;;;;;;;14.56;40.47;101730.63;4967390;28;20038;-79
2022/05/10 05:53:42;;;;;;;15.73;10.32;;;;;;;14.83;40.46;101727.72;4996900;28;20050;-79
2022/05/10 05:56:10;;;;;;;15.77;11.25;;;;;;;14.94;40.13;101730.72;4970275;28;20030;-79
2022/05/10 05:58:40;;;;;;;17.27;10.25;;;;;;;14.96;40.32;101708.66;4967646;28;20037;-80
2022/05/10 06:01:14;;;;;;;21.35;11.82;;;;;;;15.06;39.72;101708.25;4967752;28;20034;-79
2022/05/10 06:03:42;;;;;;;15.63;10.43;;;;;;;15.04;39.65;101710.13;4964183;28;20136;-79
2022/05/10 06:06:07;;;;;;;27.75;12.88;;;;;;;15.08;39.49;101712.53;4983313;28;20101;-79
2022/05/10 06:08:33;;;;;;;17.35;11.63;;;;;;;14.74;39.98;101707.94;4984839;28;20591;-78
2022/05/10 06:10:58;;;;;;;17.73;11.25;;;;;;;14.84;39.59;101708.38;4984757;28;20034;-80
2022/05/10 06:13:24;;;;;;;17.23;11.52;;;;;;;14.34;41.27;101707.88;4967925;28;20037;-82
2022/05/10 06:15:50;;;;;;;18.90;10.65;;;;;;;14.73;40.24;101704.44;5002230;28;20061;-78
2022/05/10 06:18:16;;;;;;;15.50;11.55;;;;;;;14.71;40.43;101698.41;4993452;28;20731;-79
2022/05/10 06:20:42;;;;;;;15.82;10.38;;;;;;;14.92;40.26;101693.94;5006041;28;20042;-80
2022/05/10 06:23:09;;;;;;;16.08;11.20;;;;;;;15.11;39.91;101704.50;4971137;28;20044;-80
2022/05/10 06:25:36;;;;;;;17.50;10.30;;;;;;;15.39;39.54;101695.31;4970484;28;20023;-81
2022/05/10 06:28:03;;;;;;;17.20;11.65;;;;;;;15.63;39.40;101687.19;5005452;28;20447;-79
2022/05/10 06:30:29;;;;;;;17.52;10.77;;;;;;;15.93;38.41;101690.06;5001326;28;20077;-81
2022/05/10 06:32:57;;;;;;;16.73;11.88;;;;;;;16.01;37.83;101685.31;4968890;28;20129;-81
2022/05/10 06:35:22;;;;;;;15.70;10.75;;;;;;;16.13;37.84;101673.28;4975975;28;20023;-80
2022/05/10 06:40:33;;;;;;;22.98;11.45;;;;;;;16.37;36.95;101674.66;4991062;28;20058;-81
2022/05/10 06:43:01;;;;;;;14.52;10.60;;;;;;;16.36;37.53;101667.69;4985194;28;20069;-81
2022/05/10 06:45:30;;;;;;;16.58;11.95;;;;;;;16.41;36.92;101668.28;4991587;28;20057;-81
2022/05/10 06:47:55;;;;;;;14.88;11.20;;;;;;;16.57;37.26;101675.41;5005319;28;20492;-79
2022/05/10 06:50:23;;;;;;;13.10;9.32;;;;;;;16.60;36.90;101657.63;4988826;28;20116;-79
2022/05/10 06:52:51;;;;;;;17.52;11.43;;;;;;;16.78;36.77;101657.63;4970260;28;20464;-82
2022/05/10 06:55:16;;;;;;;16.55;9.60;;;;;;;17.16;36.23;101652.03;4969215;28;20274;-79
2022/05/10 06:57:42;;;;;;;15.60;10.65;;;;;;;17.73;35.33;101651.47;4966979;28;20085;-81
2022/05/10 07:00:10;;;;;;;18.50;10.30;;;;;;;18.41;34.30;101650.97;4969008;28;20477;-81
2022/05/10 07:02:36;;;;;;;19.65;10.77;;;;;;;18.15;35.16;101652.53;4988952;28;20038;-80
2022/05/10 07:05:02;;;;;;;17.83;9.45;;;;;;;19.46;33.08;101639.94;4988430;28;20049;-80
2022/05/10 07:07:28;;;;;;;15.20;9.00;;;;;;;20.27;30.73;101633.66;4973035;28;20377;-77
2022/05/10 07:09:54;;;;;;;9.57;8.32;;;;;;;20.97;29.05;101629.63;4968760;28;20034;-78
2022/05/10 07:12:20;;;;;;;11.55;8.50;;;;;;;21.69;27.67;101625.19;4969821;28;20073;-80
2022/05/10 07:14:45;;;;;;;14.07;8.98;;;;;;;22.34;26.51;101626.41;4968529;28;20038;-79
2022/05/10 07:17:12;;;;;;;11.73;9.48;;;;;;;23.48;25.17;101617.25;4982205;28;20042;-77
2022/05/10 07:19:38;;;;;;;10.40;7.32;;;;;;;23.92;25.02;101622.50;4974480;28;20022;-79
2022/05/10 07:22:04;;;;;;;16.77;8.38;;;;;;;24.47;23.83;101627.59;4965171;28;20424;-79
2022/05/10 07:24:30;;;;;;;13.88;8.77;;;;;;;25.62;22.34;101622.56;4992289;28;20487;-79
2022/05/10 07:26:56;;;;;;;12.93;7.95;;;;;;;27.64;20.08;101623.56;4966204;28;20145;-79
2022/05/10 07:29:24;;;;;;;12.23;7.75;;;;;;;27.90;19.70;101620.88;4989360;28;20129;-78
2022/05/10 07:31:50;;;;;;;17.27;9.55;;;;;;;29.29;18.25;101614.38;4973762;28;20042;-80
2022/05/10 07:34:16;;;;;;;11.32;8.30;;;;;;;29.77;17.43;101605.44;4987089;28;20114;-80
2022/05/10 07:36:42;;;;;;;12.68;8.10;;;;;;;28.06;19.03;101611.25;4968196;28;20037;-78
2022/05/10 07:39:14;;;;;;;14.30;7.93;;;;;;;28.23;18.83;101612.19;4972333;28;20074;-79
2022/05/10 07:41:41;;;;;;;8.43;6.72;;;;;;;28.74;17.91;101611.22;4985694;28;20980;-79
2022/05/10 07:44:07;;;;;;;7.00;5.43;;;;;;;29.44;17.04;101610.00;4969419;28;20110;-79
2022/05/10 07:46:33;;;;;;;12.45;6.50;;;;;;;29.57;17.73;101601.38;4969078;28;20018;-78
2022/05/10 07:48:58;;;;;;;9.35;6.68;;;;;;;29.57;16.88;101602.25;4964520;28;20038;-77
2022/05/10 07:51:24;;;;;;;10.93;7.20;;;;;;;26.96;19.06;101599.94;4966897;28;20664;-78
2022/05/10 07:53:51;;;;;;;9.20;5.90;;;;;;;28.52;18.06;101601.91;4971948;28;20027;-79
2022/05/10 07:56:17;;;;;;;9.95;6.22;;;;;;;29.11;17.70;101593.81;4970520;28;20026;-80
2022/05/10 07:58:42;;;;;;;12.60;5.50;;;;;;;31.01;16.32;101594.94;4968509;28;20512;-80
2022/05/10 08:01:08;;;;;;;6.82;5.18;;;;;;;31.66;15.34;101579.25;4982064;28;20065;-75
2022/05/10 08:03:34;;;;;;;8.10;5.32;;;;;;;31.54;15.73;101577.00;4979691;28;20034;-78
2022/05/10 08:06:00;;;;;;;9.63;5.57;;;;;;;28.37;17.84;101578.47;4965103;28;20120;-79
2022/05/10 08:08:28;;;;;;;10.82;5.63;;;;;;;28.29;18.31;101580.13;4986728;28;20053;-80
2022/05/10 08:10:55;;;;;;;7.28;5.20;;;;;;;27.85;19.21;101582.91;4964936;28;20034;-79
2022/05/10 08:13:23;;;;;;;8.93;4.35;;;;;;;27.44;19.47;101574.53;4967958;28;20121;-77
2022/05/10 08:15:50;;;;;;;10.13;6.28;;;;;;;27.24;19.24;101567.69;4967578;28;20092;-78
2022/05/10 08:18:17;;;;;;;8.38;5.20;;;;;;;27.48;19.47;101570.56;4981252;28;20072;-77
2022/05/10 08:20:43;;;;;;;7.13;5.85;;;;;;;28.08;18.47;101568.94;4968603;28;20034;-79
2022/05/10 08:23:11;;;;;;;7.47;6.25;;;;;;;27.20;19.50;101566.31;4965801;28;20117;-78
2022/05/10 08:25:37;;;;;;;9.07;5.57;;;;;;;27.14;19.83;101564.22;4981774;28;20125;-80
2022/05/10 08:28:03;;;;;;;10.65;5.47;;;;;;;26.93;20.49;101561.84;4982576;28;20888;-80
2022/05/10 08:30:29;;;;;;;6.63;5.75;;;;;;;26.34;21.18;101567.56;4983931;28;20026;-79
2022/05/10 08:32:55;;;;;;;6.80;5.15;;;;;;;26.08;21.86;101565.53;4964398;28;20129;-77
2022/05/10 08:35:20;;;;;;;11.50;7.82;;;;;;;25.20;22.22;101555.97;4967405;28;20085;-80
2022/05/10 08:37:46;;;;;;;10.93;7.38;;;;;;;24.18;23.40;101557.00;4967566;28;20380;-79
2022/05/10 08:40:27;;;;;;;12.55;5.40;;;;;;;23.25;24.84;101557.78;4967704;28;20723;-80
2022/05/10 08:42:56;;;;;;;8.70;4.47;;;;;;;23.90;24.71;101557.72;4939707;28;20065;-77
2022/05/10 08:45:24;;;;;;;10.15;4.18;;;;;;;23.83;24.27;101552.00;4964090;28;20040;-81
2022/05/10 08:47:50;;;;;;;6.30;4.43;;;;;;;24.98;23.05;101549.09;4963267;28;20111;-80
2022/05/10 08:50:16;;;;;;;5.65;3.72;;;;;;;25.03;22.50;101552.16;4969358;28;20026;-82
2022/05/10 08:52:46;;;;;;;10.02;4.82;;;;;;;24.86;22.60;101540.28;4964987;28;20520;-80
2022/05/10 08:55:15;;;;;;;6.38;3.20;;;;;;;26.12;20.82;101544.66;4963778;28;20058;-77
2022/05/10 08:57:54;;;;;;;6.88;4.65;;;;;;;26.42;21.76;101540.00;4967790;28;20081;-78
2022/05/10 09:00:28;;;;;;;11.10;3.80;;;;;;;25.73;22.05;101531.38;4965882;28;20691;-80
2022/05/10 09:03:00;;;;;;;7.80;2.97;;;;;;;25.04;22.95;101536.00;4961441;28;20042;-79
2022/05/10 09:05:28;;;;;;;7.93;3.85;;;;;;;25.05;23.25;101532.31;4966523;28;20031;-78
2022/05/10 09:07:54;;;;;;;10.38;4.28;;;;;;;26.49;21.64;101525.00;4967680;28;20038;-78
2022/05/10 09:10:40;;;;;;;9.10;3.65;;;;;;;27.00;20.72;101523.50;4966834;28;20646;-80
2022/05/10 09:13:13;;;;;;;7.05;3.28;;;;;;;27.48;20.08;101508.81;4964875;28;20042;-79
2022/05/10 09:15:47;;;;;;;7.22;2.92;;;;;;;26.12;21.32;101512.53;4999904;28;20475;-81
2022/05/10 09:18:51;;;;;;;10.30;3.08;;;;;;;26.57;20.69;101511.69;4981600;28;20037;-82
2022/05/10 09:21:27;;;;;;;8.73;3.75;;;;;;;25.67;21.59;101510.56;4963257;28;20033;-76
2022/05/10 09:24:09;;;;;;;3.92;2.97;;;;;;;24.77;22.60;101504.59;4966018;28;20046;-79
2022/05/10 09:26:42;;;;;;;6.25;3.20;;;;;;;24.78;22.21;101500.06;4986960;28;20037;-79
2022/05/10 09:29:12;;;;;;;7.40;3.10;;;;;;;24.81;23.15;101499.78;4985029;28;20052;-81
2022/05/10 09:37:24;;;;;;;9.98;4.57;;;;;;;22.99;25.30;101496.84;4998533;28;21931;-80
2022/05/10 09:40:02;;;;;;;7.78;3.17;;;;;;;23.46;24.72;101490.31;4968580;28;20040;-80
2022/05/10 09:42:42;;;;;;;4.07;2.15;;;;;;;24.02;23.40;101476.56;4968113;28;20110;-79
2022/05/10 09:45:13;;;;;;;6.85;2.88;;;;;;;24.23;23.99;101469.28;4995970;28;20509;-81
2022/05/10 09:47:39;;;;;;;7.40;2.63;;;;;;;24.16;23.42;101452.13;4984121;28;20046;-80
2022/05/10 09:50:19;;;;;;;6.93;3.30;;;;;;;23.99;24.02;101444.78;4982249;28;20030;-82
2022/05/10 09:52:47;;;;;;;5.13;2.22;;;;;;;23.99;23.72;101445.63;4965262;28;20137;-78
2022/05/10 09:55:26;;;;;;;7.18;2.92;;;;;;;23.05;24.29;101438.63;4967740;28;20428;-76
2022/05/10 09:57:52;;;;;;;4.82;2.15;;;;;;;23.68;24.36;101439.47;4960925;28;20539;-79
2022/05/10 10:00:41;;;;;;;4.13;1.75;;;;;;;24.65;23.46;101447.72;4985693;28;20112;-79
2022/05/10 10:03:06;;;;;;;4.07;1.67;;;;;;;24.55;23.58;101452.25;4967897;28;20193;-79
2022/05/10 10:05:34;;;;;;;5.88;2.60;;;;;;;24.71;22.86;101446.34;4985908;28;20125;-78
2022/05/10 10:08:00;;;;;;;5.88;1.98;;;;;;;24.25;23.17;101445.13;4977250;28;20058;-79
2022/05/10 10:10:32;;;;;;;6.03;1.60;;;;;;;24.04;23.10;101437.22;4965315;28;20034;-77
2022/05/10 10:12:58;;;;;;;7.07;2.28;;;;;;;23.76;24.17;101434.28;4962285;28;20069;-80
2022/05/10 10:15:30;;;;;;;8.02;2.60;;;;;;;23.55;24.66;101418.31;4965142;28;20061;-80
2022/05/10 10:18:04;;;;;;;3.60;1.88;;;;;;;23.07;25.46;101424.19;4962348;28;20050;-77
2022/05/10 10:20:47;;;;;;;8.57;2.28;;;;;;;22.56;25.25;101420.44;4965758;28;20058;-75
2022/05/10 10:23:28;;;;;;;5.22;2.50;;;;;;;22.88;25.12;101435.59;4965393;28;20048;-80
2022/05/10 10:25:59;;;;;;;2.55;2.00;;;;;;;22.42;26.13;101431.38;4980031;28;20728;-80
2022/05/10 10:28:40;;;;;;;7.93;2.30;;;;;;;22.60;26.67;101423.69;4966282;28;20100;-79
2022/05/10 10:31:22;;;;;;;6.25;1.83;;;;;;;22.58;25.95;101410.50;4966975;28;20025;-79
2022/05/10 10:33:58;;;;;;;11.90;2.85;;;;;;;22.63;25.48;101403.91;4963066;28;20054;-80
2022/05/10 10:36:29;;;;;;;7.28;2.22;;;;;;;22.95;25.57;101403.94;4992172;28;20042;-80
2022/05/10 10:39:01;;;;;;;6.03;2.03;;;;;;;22.88;25.27;101406.28;4967525;28;20195;-79
2022/05/10 10:41:51;;;;;;;4.03;1.88;;;;;;;22.61;26.79;101406.75;4982097;28;20053;-82
2022/05/10 10:44:24;;;;;;;3.28;2.10;;;;;;;22.69;26.00;101411.44;4964513;28;20030;-79
2022/05/10 10:47:05;;;;;;;3.45;1.88;;;;;;;22.98;25.36;101407.16;4985512;28;20037;-77
2022/05/10 10:49:44;;;;;;;3.15;1.88;;;;;;;23.13;24.83;101404.19;4963810;28;20137;-79
2022/05/10 10:52:12;;;;;;;4.30;2.00;;;;;;;23.17;24.99;101402.94;4980730;28;20072;-80
2022/05/10 10:54:38;;;;;;;4.18;1.88;;;;;;;23.17;24.38;101402.94;4963625;28;20068;-79
2022/05/10 10:57:31;;;;;;;3.72;1.63;;;;;;;22.62;25.13;101407.56;4983036;28;20053;-77
2022/05/10 11:00:18;;;;;;;9.13;1.65;;;;;;;22.51;26.14;101408.47;4963846;28;20046;-78
2022/05/10 11:03:06;;;;;;;7.55;1.88;;;;;;;22.15;25.14;101395.38;4978903;28;20046;-81
2022/05/10 11:05:47;;;;;;;10.35;2.00;;;;;;;22.29;25.15;101404.91;4968416;28;20447;-81
2022/05/10 11:08:31;;;;;;;4.35;1.67;;;;;;;21.62;26.25;101395.16;4966335;28;20049;-81
2022/05/10 11:11:03;;;;;;;4.05;1.60;;;;;;;21.09;26.67;101384.25;4963769;28;20033;-79
2022/05/10 11:13:58;;;;;;;5.03;2.50;;;;;;;22.44;25.07;101370.00;4970584;28;20670;-79
2022/05/10 11:16:57;;;;;;;2.70;1.60;;;;;;;23.23;24.90;101367.75;4965800;28;20735;-81
2022/05/10 11:19:41;;;;;;;13.88;2.72;;;;;;;22.22;26.37;101366.44;4968499;28;20042;-77
2022/05/10 11:22:35;;;;;;;6.25;2.25;;;;;;;22.58;25.87;101351.91;4966712;28;20876;-81
2022/05/10 11:25:20;;;;;;;4.82;2.10;;;;;;;23.06;25.30;101360.38;4963899;28;20038;-81
2022/05/10 11:28:26;;;;;;;7.28;2.10;;;;;;;23.37;25.21;101358.59;4996135;28;20070;-79
2022/05/10 11:31:01;;;;;;;5.75;2.53;;;;;;;22.24;25.92;101347.69;4968708;28;20649;-79
2022/05/10 11:33:48;;;;;;;6.07;1.63;;;;;;;23.26;25.89;101346.16;4971804;28;20042;-79
2022/05/10 11:36:23;;;;;;;7.32;1.85;;;;;;;23.25;25.66;101348.94;4968278;28;20539;-77
2022/05/10 11:39:07;;;;;;;6.57;2.03;;;;;;;23.06;25.73;101345.22;4963810;28;20124;-81
2022/05/10 11:41:56;;;;;;;7.70;2.00;;;;;;;23.27;25.36;101350.53;4996201;28;20030;-79
2022/05/10 11:44:42;;;;;;;6.38;1.83;;;;;;;22.48;25.97;101342.97;4987230;28;20529;-74
2022/05/10 11:47:29;;;;;;;4.40;1.83;;;;;;;22.73;26.23;101348.94;4968499;28;20034;-79
2022/05/10 11:50:04;;;;;;;5.40;1.80;;;;;;;22.74;25.95;101347.94;4964286;28;20503;-77
2022/05/10 11:52:53;;;;;;;8.38;2.28;;;;;;;22.83;25.77;101339.19;4962158;28;20120;-79
2022/05/10 11:55:41;;;;;;;5.78;2.05;;;;;;;22.36;26.29;101347.53;4967825;28;20404;-77
2022/05/10 11:58:09;;;;;;;4.78;1.95;;;;;;;21.96;26.75;101339.28;4996186;28;20054;-75
2022/05/10 12:00:34;;;;;;;18.33;2.55;;;;;;;21.91;26.52;101338.78;4966660;28;20030;-75
2022/05/10 12:03:05;;;;;;;8.75;2.55;;;;;;;21.12;27.30;101329.03;4966084;28;20047;-77
2022/05/10 12:05:35;;;;;;;4.93;1.85;;;;;;;21.50;26.57;101337.66;4967107;28;20054;-77
2022/05/10 12:08:27;;;;;;;3.47;2.05;;;;;;;21.19;27.37;101340.03;4968494;28;20451;-78
2022/05/10 12:10:53;;;;;;;4.95;2.13;;;;;;;21.71;26.92;101333.28;4965163;28;20038;-77
2022/05/10 12:21:19;;;;;;;6.95;2.38;;;;;;;21.30;27.88;101337.38;5002970;28;20049;-78
2022/05/10 12:22:59;;;;;;;10.02;2.85;;;;;;;20.37;30.00;101342.69;4986303;28;20650;-77
2022/05/10 12:25:59;;;;;;;4.38;2.70;;;;;;;19.91;32.96;101341.59;4983007;28;20412;-79
2022/05/10 12:28:39;;;;;;;4.57;2.80;;;;;;;19.82;33.96;101347.56;4964659;28;20492;-81
2022/05/10 12:31:30;;;;;;;6.82;2.83;;;;;;;20.35;34.34;101334.00;4995325;28;20639;-78
2022/05/10 12:34:00;;;;;;;7.68;4.20;;;;;;;19.81;34.08;101332.59;4963258;28;20069;-77
2022/05/10 12:36:35;;;;;;;5.75;3.67;;;;;;;19.77;34.27;101327.59;4981389;28;20245;-77
2022/05/10 12:39:17;;;;;;;9.52;3.58;;;;;;;19.22;34.16;101319.94;4963082;28;20130;-77
2022/05/10 12:41:52;;;;;;;6.63;3.00;;;;;;;20.29;32.70;101323.84;4966011;28;20042;-79
2022/05/10 12:44:18;;;;;;;3.63;3.20;;;;;;;20.16;32.70;101320.38;4963824;28;20038;-78
2022/05/10 12:47:05;;;;;;;10.20;3.33;;;;;;;20.15;31.83;101316.00;4983118;28;20045;-77
2022/05/10 12:49:48;;;;;;;13.48;3.65;;;;;;;20.61;30.94;101309.94;4964509;28;20087;-80
2022/05/10 12:52:43;;;;;;;4.07;2.75;;;;;;;21.06;30.92;101310.88;4964139;28;20129;-79
2022/05/10 12:55:27;;;;;;;7.90;2.95;;;;;;;20.78;30.78;101314.81;4966331;28;20097;-78
2022/05/10 12:58:14;;;;;;;9.90;3.58;;;;;;;20.47;31.09;101300.38;4959380;28;20046;-80
2022/05/10 13:00:52;;;;;;;7.10;3.70;;;;;;;21.56;29.79;101299.94;4966080;28;20034;-80
2022/05/10 13:03:22;;;;;;;7.57;3.20;;;;;;;21.72;29.64;101289.72;4979523;28;20476;-80
2022/05/10 13:06:22;;;;;;;5.63;3.20;;;;;;;21.55;29.29;101288.44;4963883;28;20042;-79
2022/05/10 13:08:57;;;;;;;10.02;2.83;;;;;;;21.80;29.64;101277.63;4964713;28;20050;-78
2022/05/10 13:11:27;;;;;;;4.97;2.83;;;;;;;22.07;28.72;101272.69;4965373;28;20110;-79
2022/05/10 13:13:54;;;;;;;12.88;4.35;;;;;;;21.79;28.96;101273.28;4962195;28;20038;-80
2022/05/10 13:16:20;;;;;;;8.32;3.63;;;;;;;21.51;30.17;101270.19;4962790;28;20030;-80
2022/05/10 13:18:53;;;;;;;9.90;3.88;;;;;;;21.27;29.89;101273.81;4961130;28;20038;-78
2022/05/10 13:21:30;;;;;;;7.25;3.45;;;;;;;21.83;29.51;101272.06;4963626;28;20072;-81
2022/05/10 13:23:58;;;;;;;9.80;4.30;;;;;;;20.79;30.79;101281.97;4960840;28;20423;-79
2022/05/10 13:26:24;;;;;;;6.40;4.43;;;;;;;20.82;30.28;101273.78;4969231;28;20031;-79
2022/05/10 13:28:52;;;;;;;3.50;3.20;;;;;;;21.12;30.77;101270.56;4959793;28;20141;-77
2022/05/10 13:31:22;;;;;;;7.47;4.65;;;;;;;21.79;29.79;101270.63;4963919;28;20029;-81
2022/05/10 13:33:49;;;;;;;15.50;4.25;;;;;;;22.43;28.42;101257.31;4964728;28;20038;-80
2022/05/10 13:36:19;;;;;;;13.23;4.38;;;;;;;21.80;29.20;101259.84;4963612;28;20034;-79
2022/05/10 13:38:52;;;;;;;9.75;4.63;;;;;;;22.14;28.99;101265.09;4995310;28;20064;-82
2022/05/10 13:41:30;;;;;;;9.45;4.45;;;;;;;21.73;29.27;101256.81;4966012;28;20068;-77
2022/05/10 13:43:59;;;;;;;7.13;4.03;;;;;;;21.16;30.28;101263.19;4962975;28;20054;-80
2022/05/10 13:46:33;;;;;;;6.30;3.70;;;;;;;21.77;29.67;101255.63;4985534;28;20392;-82